Time;durP1;ratioP1;P1;durP2;ratioP2;P2;SDS_P1;SDS_P2;PMS_P1;PMS_P2;Temp;Humidity;BMP_temperature;BMP_pressure;BME280_temperature;BME280_humidity;BME280_pressure;Samples;Min_cycle;Max_cycle;Signal;HPM_P1;HPM_P2
2022/06/14 00:00:57;;;;;;;3.27;2.27;;;;;;;14.58;100.00;96811.91;5030564;28;105888;-63
2022/06/14 00:03:27;;;;;;;3.43;2.20;;;;;;;14.63;100.00;96817.28;5033397;28;101814;-63
2022/06/14 00:05:56;;;;;;;4.00;2.30;;;;;;;14.67;100.00;96818.31;5031553;28;106212;-63
2022/06/14 00:08:26;;;;;;;2.83;2.20;;;;;;;14.50;100.00;96812.41;5032597;27;102591;-63
2022/06/14 00:10:56;;;;;;;2.10;2.00;;;;;;;14.44;100.00;96813.47;5033039;27;102020;-63
2022/06/14 00:13:24;;;;;;;5.40;2.40;;;;;;;14.35;100.00;96814.25;5036008;27;102294;-63
2022/06/14 00:15:58;;;;;;;2.83;2.27;;;;;;;14.36;100.00;96815.84;5032872;27;101844;-64
2022/06/14 00:18:25;;;;;;;2.73;2.37;;;;;;;14.33;100.00;96811.03;5031605;28;105142;-63
2022/06/14 00:20:53;;;;;;;4.87;2.23;;;;;;;14.26;100.00;96823.84;5030727;28;106478;-63
2022/06/14 00:23:22;;;;;;;2.80;2.60;;;;;;;14.11;100.00;96823.78;5032980;27;101845;-63
2022/06/14 00:25:54;;;;;;;3.63;2.27;;;;;;;14.08;100.00;96825.09;5031361;28;105369;-63
2022/06/14 00:28:25;;;;;;;2.87;2.30;;;;;;;14.07;100.00;96817.34;5032481;28;102615;-63
2022/06/14 00:30:55;;;;;;;2.37;2.17;;;;;;;14.05;100.00;96817.59;5032698;28;101903;-63
2022/06/14 00:33:23;;;;;;;3.53;2.50;;;;;;;14.03;100.00;96817.06;5032518;28;102719;-64
2022/06/14 00:35:57;;;;;;;4.70;2.70;;;;;;;14.05;100.00;96817.59;5035377;27;102224;-63
2022/06/14 00:38:24;;;;;;;4.27;2.60;;;;;;;14.02;100.00;96809.28;5032850;28;102561;-63
2022/06/14 00:40:55;;;;;;;4.10;2.67;;;;;;;14.07;100.00;96820.00;5030657;28;105614;-63
2022/06/14 00:43:26;;;;;;;4.17;2.63;;;;;;;14.12;100.00;96825.38;5032772;28;101806;-63
2022/06/14 00:46:34;;;;;;;2.70;2.50;;;;;;;13.92;100.00;96822.59;5031246;28;105326;-64
2022/06/14 00:49:06;;;;;;;2.90;2.53;;;;;;;13.78;100.00;96826.81;5031762;27;102840;-63
2022/06/14 00:51:38;;;;;;;3.83;2.80;;;;;;;13.85;100.00;96816.69;5032562;27;101704;-63
2022/06/14 00:54:14;;;;;;;5.33;2.73;;;;;;;13.88;100.00;96813.50;5032354;28;102569;-64
2022/06/14 00:56:46;;;;;;;3.40;2.73;;;;;;;13.82;100.00;96822.56;5033734;28;103039;-63
2022/06/14 00:59:22;;;;;;;2.77;2.53;;;;;;;13.87;100.00;96811.88;5031965;28;102540;-64
2022/06/14 01:01:52;;;;;;;5.83;2.67;;;;;;;13.83;100.00;96816.13;5030346;28;105878;-63
2022/06/14 01:04:25;;;;;;;3.90;3.20;;;;;;;13.91;100.00;96807.63;5032250;28;101712;-63
2022/06/14 01:06:57;;;;;;;2.70;2.50;;;;;;;13.84;100.00;96810.53;5032392;28;102591;-63
2022/06/14 01:09:30;;;;;;;3.40;2.93;;;;;;;13.76;100.00;96810.22;5030081;28;105511;-63
2022/06/14 01:12:02;;;;;;;2.87;2.67;;;;;;;13.80;100.00;96811.31;5032297;28;101710;-64
2022/06/14 01:14:40;;;;;;;4.37;2.80;;;;;;;13.80;100.00;96816.69;5032157;27;102781;-63
2022/06/14 01:17:09;;;;;;;2.57;2.40;;;;;;;13.70;100.00;96806.75;5029947;28;105296;-64
2022/06/14 01:19:41;;;;;;;3.40;2.83;;;;;;;13.66;100.00;96807.50;5033837;28;101998;-63
2022/06/14 01:22:43;;;;;;;3.63;3.23;;;;;;;13.43;100.00;96805.22;5029953;28;105515;-63
2022/06/14 01:25:11;;;;;;;3.40;2.60;;;;;;;13.39;100.00;96812.97;4989865;28;101924;-63
2022/06/14 01:27:40;;;;;;;3.10;2.70;;;;;;;13.32;100.00;96814.25;4989592;28;102528;-64
2022/06/14 01:30:12;;;;;;;3.53;2.57;;;;;;;13.28;100.00;96805.13;4988492;28;101930;-64
2022/06/14 01:32:46;;;;;;;3.40;2.80;;;;;;;13.20;100.00;96811.75;4972612;28;101927;-63
2022/06/14 01:35:51;;;;;;;2.80;2.60;;;;;;;13.19;100.00;96812.03;4972903;28;105717;-63
2022/06/14 01:38:20;;;;;;;2.80;2.60;;;;;;;13.17;100.00;96809.59;4989061;28;102865;-64
2022/06/14 01:40:56;;;;;;;3.13;2.63;;;;;;;13.19;100.00;96809.34;4989306;28;102259;-63
2022/06/14 01:43:39;;;;;;;3.30;3.00;;;;;;;13.17;100.00;96812.28;4992288;28;102505;-63
2022/06/14 01:46:21;;;;;;;4.13;2.63;;;;;;;13.10;100.00;96805.53;4989387;28;101910;-63
2022/06/14 01:51:50;;;;;;;2.97;2.67;;;;;;;13.10;100.00;96810.88;4989448;28;103036;-63
2022/06/14 01:51:56;;;;;;;2.70;2.50;;;;;;;12.85;100.00;96815.97;4988923;28;103022;-63
2022/06/14 01:54:32;;;;;;;5.63;3.00;;;;;;;12.93;100.00;96818.19;4989206;28;101822;-63
2022/06/14 01:57:08;;;;;;;4.07;2.40;;;;;;;12.81;100.00;96812.22;5024910;28;104410;-64
2022/06/14 01:59:45;;;;;;;2.53;2.33;;;;;;;12.66;100.00;96820.06;5028020;28;105395;-63
2022/06/14 02:02:24;;;;;;;2.90;2.30;;;;;;;12.73;100.00;96815.31;5031300;28;101946;-63
2022/06/14 02:05:01;;;;;;;2.60;2.40;;;;;;;12.66;100.00;96812.06;5031316;28;103903;-63
2022/06/14 02:07:38;;;;;;;3.30;2.80;;;;;;;12.68;100.00;96812.63;5034368;28;102809;-64
2022/06/14 02:10:14;;;;;;;2.90;2.70;;;;;;;12.64;100.00;96815.00;5031256;28;102997;-63
2022/06/14 02:12:46;;;;;;;3.57;2.43;;;;;;;12.67;100.00;96808.34;5029124;28;107024;-63
2022/06/14 02:15:29;;;;;;;5.40;2.90;;;;;;;12.70;100.00;96805.19;5031291;27;101747;-63
2022/06/14 02:18:15;;;;;;;3.03;2.80;;;;;;;12.60;100.00;96810.41;5031272;27;102339;-63
2022/06/14 02:20:45;;;;;;;3.13;2.67;;;;;;;12.59;100.00;96809.59;5030569;27;102608;-63
2022/06/14 02:23:13;;;;;;;3.70;2.73;;;;;;;12.62;100.00;96813.63;5031232;28;101731;-64
2022/06/14 02:25:56;;;;;;;2.80;2.60;;;;;;;12.60;100.00;96813.09;5030849;28;102396;-63
2022/06/14 02:28:32;;;;;;;2.83;2.63;;;;;;;12.65;100.00;96807.78;5030361;28;102553;-63
2022/06/14 02:31:03;;;;;;;3.97;3.10;;;;;;;12.64;100.00;96814.19;5034511;27;101824;-63
2022/06/14 02:33:36;;;;;;;3.10;2.90;;;;;;;12.65;100.00;96811.25;5028927;28;106613;-64
2022/06/14 02:36:09;;;;;;;3.63;3.00;;;;;;;12.66;100.00;96812.06;5030992;28;101734;-64
2022/06/14 02:38:44;;;;;;;3.07;2.80;;;;;;;12.65;100.00;96813.13;5030937;28;102447;-63
2022/06/14 02:41:21;;;;;;;3.23;2.80;;;;;;;12.58;100.00;96804.50;5028738;28;105909;-63
2022/06/14 02:43:54;;;;;;;3.57;2.80;;;;;;;12.54;100.00;96800.75;5030965;28;101753;-64
2022/06/14 02:46:35;;;;;;;2.90;2.70;;;;;;;12.41;100.00;96807.28;5029262;28;105156;-63
2022/06/14 02:49:11;;;;;;;3.07;2.80;;;;;;;12.29;100.00;96811.97;5030320;27;102586;-63
2022/06/14 02:51:43;;;;;;;3.70;2.80;;;;;;;12.21;100.00;96804.41;5032621;28;101860;-63
2022/06/14 02:54:16;;;;;;;3.30;2.80;;;;;;;12.10;100.00;96805.34;5028491;28;105342;-63
2022/06/14 02:56:50;;;;;;;3.30;3.00;;;;;;;12.21;100.00;96815.06;5030782;28;101724;-63
2022/06/14 02:59:24;;;;;;;3.37;2.60;;;;;;;12.24;100.00;96809.25;5029879;28;102522;-64
2022/06/14 03:01:57;;;;;;;5.10;3.03;;;;;;;12.23;100.00;96809.50;5030124;27;102731;-63
2022/06/14 03:04:52;;;;;;;3.10;2.80;;;;;;;12.19;100.00;96808.38;5030714;27;101674;-63
2022/06/14 03:07:24;;;;;;;4.03;3.10;;;;;;;12.23;100.00;96817.50;5030582;28;102334;-64
2022/06/14 03:09:53;;;;;;;4.00;3.53;;;;;;;12.23;100.00;96815.66;5029766;28;103299;-63
2022/06/14 03:12:44;;;;;;;3.60;2.93;;;;;;;12.21;100.00;96816.94;5030544;27;101993;-63
2022/06/14 03:15:25;;;;;;;3.33;3.13;;;;;;;12.18;100.00;96817.44;5035386;28;105517;-63
2022/06/14 03:18:05;;;;;;;4.50;3.10;;;;;;;12.21;100.00;96816.94;5034112;28;101779;-63
2022/06/14 03:20:44;;;;;;;3.37;3.13;;;;;;;12.23;100.00;96820.16;5033931;28;102404;-63
2022/06/14 03:23:20;;;;;;;3.40;3.10;;;;;;;12.21;100.00;96822.28;5033224;27;104594;-63
2022/06/14 03:25:57;;;;;;;4.27;3.30;;;;;;;12.15;100.00;96818.72;5032484;28;101815;-63
2022/06/14 03:28:31;;;;;;;4.80;3.00;;;;;;;12.28;100.00;96822.88;5033791;27;102840;-63
2022/06/14 03:31:06;;;;;;;3.03;2.67;;;;;;;12.27;100.00;96815.94;5031525;28;103749;-63
2022/06/14 03:33:39;;;;;;;4.90;3.60;;;;;;;12.27;100.00;96822.06;5033750;28;101723;-63
2022/06/14 03:36:37;;;;;;;3.60;3.30;;;;;;;12.28;100.00;96823.69;5032207;28;105584;-63
2022/06/14 03:39:10;;;;;;;4.93;2.97;;;;;;;12.27;100.00;96821.28;5036663;28;102620;-63
2022/06/14 03:41:40;;;;;;;4.63;3.20;;;;;;;12.25;100.00;96818.84;5033782;28;102879;-64
2022/06/14 03:44:09;;;;;;;3.93;3.20;;;;;;;12.34;100.00;96827.22;5033041;27;103028;-63
2022/06/14 03:47:24;;;;;;;3.30;3.00;;;;;;;12.32;100.00;96816.78;5033537;27;101798;-63
2022/06/14 03:53:30;;;;;;;3.43;2.67;;;;;;;12.09;100.00;96822.41;5033002;27;103014;-63
2022/06/14 03:56:08;;;;;;;3.03;2.73;;;;;;;12.22;100.00;96829.22;5031803;28;101927;-63
2022/06/14 03:58:54;;;;;;;3.43;3.13;;;;;;;12.33;100.00;96833.59;5033377;28;102374;-63
2022/06/14 04:01:28;;;;;;;3.50;2.80;;;;;;;12.48;100.00;96823.09;5030883;28;105876;-63
2022/06/14 04:04:35;;;;;;;4.17;3.43;;;;;;;12.53;100.00;96831.94;5035316;28;101956;-64
2022/06/14 04:07:14;;;;;;;2.73;2.53;;;;;;;12.51;100.00;96827.94;5032357;28;102738;-63
2022/06/14 04:09:50;;;;;;;3.40;3.10;;;;;;;12.53;100.00;96836.50;5033424;28;101735;-63
2022/06/14 04:12:26;;;;;;;3.30;3.00;;;;;;;12.54;100.00;96827.44;5033184;28;102856;-63
2022/06/14 04:15:24;;;;;;;5.67;3.20;;;;;;;12.60;100.00;96831.75;5031080;28;105396;-63
2022/06/14 04:18:34;;;;;;;3.77;3.10;;;;;;;12.69;100.00;96828.38;5033300;27;101719;-63
2022/06/14 04:21:00;;;;;;;3.73;2.90;;;;;;;12.82;100.00;96833.28;5032641;28;102320;-63
2022/06/14 04:23:37;;;;;;;3.07;2.80;;;;;;;12.94;100.00;96838.47;5030396;27;105515;-63
2022/06/14 04:26:16;;;;;;;2.90;2.70;;;;;;;13.04;100.00;96822.59;5032933;27;101704;-63
2022/06/14 04:28:49;;;;;;;3.40;2.97;;;;;;;13.15;100.00;96819.75;5035848;28;101789;-63
2022/06/14 04:31:20;;;;;;;3.10;2.90;;;;;;;13.35;100.00;96821.75;5031418;28;101865;-63
2022/06/14 04:33:57;;;;;;;3.17;2.87;;;;;;;13.49;100.00;96822.91;5032891;27;102227;-64
2022/06/14 04:36:46;;;;;;;4.40;3.00;;;;;;;13.63;100.00;96818.72;5030786;28;105886;-63
2022/06/14 04:39:19;;;;;;;5.63;2.70;;;;;;;13.79;100.00;96815.06;5031384;28;101794;-63
2022/06/14 04:41:55;;;;;;;4.90;3.17;;;;;;;13.92;100.00;96825.28;5031190;28;105734;-63
2022/06/14 04:44:26;;;;;;;4.10;2.70;;;;;;;14.01;100.00;96821.06;5032060;28;103065;-63
2022/06/14 04:46:58;;;;;;;3.83;2.93;;;;;;;14.03;100.00;96822.41;5032623;28;101677;-63
2022/06/14 04:49:31;;;;;;;5.20;3.00;;;;;;;14.03;100.00;96825.09;5032709;28;102305;-63
2022/06/14 04:52:05;;;;;;;4.37;3.00;;;;;;;14.10;100.00;96828.31;5033716;28;105651;-63
2022/06/14 04:54:40;;;;;;;5.27;3.30;;;;;;;13.86;100.00;96816.44;5032286;27;103458;-63
2022/06/14 04:57:12;;;;;;;7.70;3.40;;;;;;;13.72;100.00;96819.81;5030361;28;105646;-63
2022/06/14 04:59:44;;;;;;;5.70;2.97;;;;;;;13.82;100.00;96820.69;5032041;28;101946;-64
2022/06/14 05:02:16;;;;;;;4.57;3.20;;;;;;;13.81;100.00;96816.41;5030988;28;105240;-63
2022/06/14 05:04:52;;;;;;;6.60;2.80;;;;;;;14.27;100.00;96814.75;5031836;28;102692;-63
2022/06/14 05:07:24;;;;;;;3.33;3.03;;;;;;;14.36;100.00;96814.00;5030924;28;101783;-63
2022/06/14 05:09:57;;;;;;;3.83;2.83;;;;;;;14.30;100.00;96815.03;5032358;28;102745;-63
2022/06/14 05:12:30;;;;;;;5.23;2.93;;;;;;;14.44;100.00;96810.78;5033415;28;105704;-63
2022/06/14 05:15:02;;;;;;;4.57;2.63;;;;;;;14.56;100.00;96805.22;5030747;28;105578;-63
2022/06/14 05:17:35;;;;;;;3.07;2.60;;;;;;;14.57;100.00;96806.81;5030164;28;105860;-63
2022/06/14 05:20:11;;;;;;;4.47;2.30;;;;;;;14.83;100.00;96813.81;5032222;27;101706;-63
2022/06/14 05:22:45;;;;;;;4.43;2.70;;;;;;;14.79;100.00;96807.38;5030765;28;105175;-63
2022/06/14 05:25:13;;;;;;;3.30;2.50;;;;;;;15.03;100.00;96816.47;5031506;28;102640;-63
2022/06/14 05:27:48;;;;;;;3.77;2.70;;;;;;;15.24;100.00;96812.72;5031799;27;101895;-63
2022/06/14 05:30:35;;;;;;;4.00;2.60;;;;;;;15.14;100.00;96812.72;5032214;28;102458;-63
2022/06/14 05:33:10;;;;;;;4.40;2.47;;;;;;;15.08;100.00;96822.66;5031265;27;102607;-63
2022/06/14 05:35:44;;;;;;;2.37;2.17;;;;;;;15.24;100.00;96818.09;5032701;27;101877;-63
2022/06/14 05:38:26;;;;;;;2.63;2.23;;;;;;;15.26;100.00;96826.69;5029620;28;106457;-63
2022/06/14 05:41:00;;;;;;;4.23;2.50;;;;;;;15.19;100.00;96828.81;5030587;28;101942;-63
2022/06/14 05:43:31;;;;;;;2.70;2.50;;;;;;;15.54;100.00;96823.47;5031715;28;102775;-63
2022/06/14 05:46:06;;;;;;;4.40;2.20;;;;;;;15.66;100.00;96821.28;5029597;28;105671;-63
2022/06/14 05:48:43;;;;;;;3.40;2.40;;;;;;;15.74;100.00;96813.50;5031635;28;101680;-63
2022/06/14 05:51:15;;;;;;;4.07;2.47;;;;;;;15.66;100.00;96826.66;5031731;27;102422;-64
2022/06/14 05:53:47;;;;;;;3.40;2.57;;;;;;;15.64;100.00;96821.56;5029171;28;106183;-63
2022/06/14 05:56:21;;;;;;;3.53;2.70;;;;;;;15.90;100.00;96831.16;5031814;28;101789;-63
2022/06/14 05:58:56;;;;;;;6.37;3.10;;;;;;;15.93;100.00;96822.56;5032855;28;105124;-63
2022/06/14 06:01:29;;;;;;;4.20;2.50;;;;;;;16.28;100.00;96830.47;5031266;27;104835;-63
2022/06/14 06:04:03;;;;;;;4.03;2.50;;;;;;;16.43;100.00;96843.06;5029952;28;105199;-63
2022/06/14 06:06:49;;;;;;;5.77;3.20;;;;;;;16.63;100.00;96837.59;5030881;27;102583;-63
2022/06/14 06:09:23;;;;;;;8.20;3.80;;;;;;;16.39;100.00;96842.81;5031349;28;101737;-63
2022/06/14 06:11:54;;;;;;;5.83;3.80;;;;;;;16.57;100.00;96833.31;5031121;28;102519;-63
2022/06/14 06:14:25;;;;;;;4.27;3.50;;;;;;;16.41;100.00;96837.94;5029188;28;106132;-63
2022/06/14 06:16:58;;;;;;;4.80;3.30;;;;;;;16.83;100.00;96840.13;5029825;28;101941;-63
2022/06/14 06:19:33;;;;;;;5.50;2.87;;;;;;;17.13;100.00;96839.94;5031346;28;102361;-63
2022/06/14 06:22:10;;;;;;;5.47;3.20;;;;;;;17.19;100.00;96831.56;5032206;28;106111;-64
2022/06/14 06:24:51;;;;;;;3.20;2.87;;;;;;;17.19;100.00;96836.13;5029762;28;103699;-63
2022/06/14 06:27:23;;;;;;;6.17;2.87;;;;;;;17.19;100.00;96836.13;5030574;28;102898;-63
2022/06/14 06:29:54;;;;;;;4.53;3.00;;;;;;;17.37;100.00;96833.56;5029528;28;101886;-63
2022/06/14 06:32:23;;;;;;;5.40;2.97;;;;;;;17.58;100.00;96829.63;5031028;28;102420;-63
2022/06/14 06:35:32;;;;;;;6.27;2.83;;;;;;;17.72;100.00;96829.75;5030025;28;102700;-62
2022/06/14 06:38:08;;;;;;;4.10;2.97;;;;;;;17.91;100.00;96822.56;5030822;28;101683;-63
2022/06/14 06:41:49;;;;;;;3.13;2.73;;;;;;;17.99;100.00;96827.31;5031188;28;102565;-63
2022/06/14 06:43:25;;;;;;;3.53;2.40;;;;;;;18.16;100.00;96822.28;5029624;28;103064;-63
2022/06/14 06:45:55;;;;;;;3.93;2.47;;;;;;;18.29;100.00;96826.97;5032541;28;101944;-63
2022/06/14 06:48:34;;;;;;;3.70;2.20;;;;;;;18.19;100.00;96821.69;5028488;28;105894;-63
2022/06/14 06:51:05;;;;;;;4.63;2.63;;;;;;;17.96;100.00;96822.50;5028839;28;101828;-63
2022/06/14 06:53:40;;;;;;;3.00;2.20;;;;;;;18.46;100.00;96821.91;5030759;28;102396;-62
2022/06/14 06:56:23;;;;;;;5.83;2.10;;;;;;;18.68;100.00;96824.84;5030052;28;102569;-63
2022/06/14 06:58:55;;;;;;;2.93;2.27;;;;;;;18.79;100.00;96824.44;5029080;28;101806;-62
2022/06/14 07:01:26;;;;;;;4.80;2.70;;;;;;;19.04;100.00;96823.25;5028612;28;105638;-62
2022/06/14 07:04:02;;;;;;;3.43;2.13;;;;;;;19.22;100.00;96819.75;5029700;28;103488;-63
2022/06/14 07:06:47;;;;;;;2.23;1.93;;;;;;;19.29;100.00;96822.91;5028686;28;101901;-62
2022/06/14 07:09:21;;;;;;;4.27;2.27;;;;;;;19.48;100.00;96816.38;5033077;28;102652;-62
2022/06/14 07:11:52;;;;;;;4.40;2.20;;;;;;;19.39;100.00;96818.13;5030075;27;101680;-62
2022/06/14 07:14:24;;;;;;;3.97;2.07;;;;;;;19.67;100.00;96819.00;5030381;28;102925;-63
2022/06/14 07:17:01;;;;;;;4.73;1.97;;;;;;;19.70;100.00;96813.00;5028165;28;106595;-62
2022/06/14 07:19:48;;;;;;;3.23;2.00;;;;;;;19.81;100.00;96811.72;5030340;27;101746;-63
2022/06/14 07:22:19;;;;;;;3.27;2.20;;;;;;;19.86;100.00;96817.03;5028768;28;105714;-62
2022/06/14 07:24:56;;;;;;;3.10;1.90;;;;;;;19.42;100.00;96814.03;5028136;28;105436;-63
2022/06/14 07:27:29;;;;;;;3.20;2.13;;;;;;;19.97;100.00;96813.03;5030296;28;101703;-63
2022/06/14 07:30:02;;;;;;;3.80;2.07;;;;;;;20.28;100.00;96819.47;5033006;28;102431;-63
2022/06/14 07:32:34;;;;;;;3.03;1.77;;;;;;;20.43;100.00;96811.06;5028427;28;101885;-63
2022/06/14 07:35:09;;;;;;;2.80;1.90;;;;;;;20.42;100.00;96807.53;5030181;27;102847;-63
2022/06/14 07:37:42;;;;;;;3.10;1.63;;;;;;;20.70;100.00;96811.00;5029544;28;102904;-63
2022/06/14 07:40:18;;;;;;;2.97;1.80;;;;;;;20.99;100.00;96808.75;5030161;28;101915;-63
2022/06/14 07:42:53;;;;;;;3.97;2.00;;;;;;;21.08;100.00;96798.81;5030140;28;102366;-62
2022/06/14 07:45:32;;;;;;;3.53;1.73;;;;;;;21.22;100.00;96800.34;5029307;28;102706;-62
2022/06/14 07:48:10;;;;;;;2.30;1.70;;;;;;;21.47;100.00;96798.91;5029913;28;101669;-62
2022/06/14 07:50:42;;;;;;;3.80;1.87;;;;;;;21.48;100.00;96795.88;5011593;28;106553;-62
2022/06/14 07:53:13;;;;;;;3.10;1.90;;;;;;;21.71;100.00;96802.09;5030722;28;105789;-62
2022/06/14 07:56:09;;;;;;;4.47;2.07;;;;;;;21.65;96.81;96797.91;5030180;28;102273;-62
2022/06/14 07:58:45;;;;;;;3.13;2.17;;;;;;;21.93;100.00;96802.06;5029545;27;105276;-62
2022/06/14 08:01:16;;;;;;;2.10;1.53;;;;;;;21.92;98.37;96806.69;5031436;28;101942;-62
2022/06/14 08:03:49;;;;;;;3.20;1.83;;;;;;;22.10;94.95;96796.69;5033337;28;102831;-62
2022/06/14 08:06:29;;;;;;;3.57;2.10;;;;;;;22.20;91.57;96804.56;5032540;27;102640;-62
2022/06/14 08:09:02;;;;;;;1.67;1.53;;;;;;;22.36;90.44;96790.28;5033392;28;101736;-62
2022/06/14 08:11:39;;;;;;;3.77;1.50;;;;;;;22.47;93.63;96788.06;5031676;28;104111;-62
2022/06/14 08:14:14;;;;;;;3.03;1.90;;;;;;;22.45;92.93;96790.31;5032518;28;102574;-62
2022/06/14 08:16:43;;;;;;;4.17;1.70;;;;;;;22.54;87.53;96797.34;5036733;28;101832;-62
2022/06/14 08:19:49;;;;;;;3.13;1.77;;;;;;;22.60;91.81;96795.28;5032192;28;102596;-62
2022/06/14 08:22:23;;;;;;;2.33;1.60;;;;;;;22.75;80.59;96792.09;5033061;28;101933;-62
2022/06/14 08:25:35;;;;;;;2.60;1.53;;;;;;;22.91;83.71;96782.38;5033082;28;102599;-62
2022/06/14 08:28:15;;;;;;;2.70;1.80;;;;;;;22.80;82.08;96783.81;5030759;28;104739;-62
2022/06/14 08:30:47;;;;;;;3.40;2.00;;;;;;;22.67;81.46;96790.19;5033037;27;101697;-62
2022/06/14 08:33:19;;;;;;;3.50;1.70;;;;;;;22.85;89.02;96789.91;5031290;28;106566;-62
2022/06/14 08:35:55;;;;;;;2.53;1.50;;;;;;;22.94;77.54;96792.63;5032320;27;102542;-62
2022/06/14 08:38:28;;;;;;;2.20;1.50;;;;;;;22.96;79.46;96795.78;5032808;28;101988;-62
2022/06/14 08:41:10;;;;;;;3.10;1.90;;;;;;;22.98;62.76;96791.66;5035560;28;102465;-62
2022/06/14 08:43:45;;;;;;;2.53;1.70;;;;;;;23.00;69.33;96791.34;5032748;28;101713;-62
2022/06/14 08:46:27;;;;;;;3.03;1.50;;;;;;;23.32;65.54;96794.38;5032841;28;102351;-62
2022/06/14 08:49:23;;;;;;;3.37;1.63;;;;;;;23.57;62.85;96790.00;5031988;27;102492;-62
2022/06/14 08:52:18;;;;;;;2.47;1.70;;;;;;;23.34;67.02;96786.72;5032310;27;101875;-62
2022/06/14 08:55:21;;;;;;;3.40;1.73;;;;;;;23.43;64.66;96794.84;5032139;28;102397;-62
2022/06/14 08:58:13;;;;;;;2.00;1.60;;;;;;;23.75;55.57;96788.88;5013724;28;105524;-62
2022/06/14 09:00:57;;;;;;;3.87;2.00;;;;;;;23.74;54.97;96795.41;5030655;28;101877;-62
2022/06/14 09:03:45;;;;;;;3.63;1.90;;;;;;;23.92;58.90;96795.06;5031014;28;105386;-62
2022/06/14 09:07:03;;;;;;;2.20;1.60;;;;;;;24.30;55.47;96792.34;5035189;28;102808;-62
2022/06/14 09:10:18;;;;;;;2.90;1.53;;;;;;;24.47;51.24;96789.53;5032339;27;102520;-62
2022/06/14 09:13:18;;;;;;;2.93;1.63;;;;;;;24.48;53.76;96793.84;5006681;27;102631;-62
2022/06/14 09:16:16;;;;;;;3.40;1.83;;;;;;;24.42;61.11;96789.72;5032219;28;101712;-62
2022/06/14 09:19:05;;;;;;;2.77;1.40;;;;;;;24.48;60.65;96774.81;5031970;28;102626;-62
2022/06/14 09:21:43;;;;;;;1.63;1.50;;;;;;;24.67;54.12;96776.00;5031487;28;102548;-62
2022/06/14 09:24:20;;;;;;;3.40;1.50;;;;;;;24.84;53.35;96775.88;5032197;27;101684;-62
2022/06/14 09:27:08;;;;;;;3.20;1.77;;;;;;;25.09;52.31;96774.88;5032095;28;101685;-62
2022/06/14 09:29:58;;;;;;;3.37;1.50;;;;;;;25.07;51.06;96777.13;5031342;28;103153;-62
2022/06/14 09:33:14;;;;;;;1.70;1.47;;;;;;;25.35;50.07;96782.84;5033796;28;101801;-62
2022/06/14 09:36:09;;;;;;;2.90;1.57;;;;;;;25.42;50.72;96770.28;5031131;27;102545;-62
2022/06/14 09:39:09;;;;;;;2.33;1.30;;;;;;;25.33;51.46;96779.66;5031876;28;101709;-62
2022/06/14 09:42:14;;;;;;;2.43;1.40;;;;;;;25.46;49.62;96775.84;5032087;27;102911;-62
2022/06/14 09:45:21;;;;;;;2.43;1.23;;;;;;;25.83;48.38;96777.53;5031127;28;102570;-62
2022/06/14 09:48:20;;;;;;;3.47;1.57;;;;;;;25.81;46.32;96768.88;5005148;28;101844;-62
2022/06/14 09:51:24;;;;;;;1.63;1.20;;;;;;;25.71;48.05;96774.78;5031526;28;102352;-62
2022/06/14 09:54:22;;;;;;;2.47;1.20;;;;;;;26.07;46.21;96772.13;5029267;28;105840;-62
2022/06/14 09:57:15;;;;;;;1.53;1.27;;;;;;;25.28;42.72;96766.25;5033509;28;101815;-62
2022/06/14 10:00:01;;;;;;;1.90;1.30;;;;;;;25.63;47.13;96764.75;5028625;28;105926;-62
2022/06/14 10:02:43;;;;;;;2.03;1.33;;;;;;;25.67;45.39;96762.97;5031642;28;101715;-62
2022/06/14 10:05:47;;;;;;;2.53;1.30;;;;;;;25.98;42.50;96765.97;5031491;28;102353;-62
2022/06/14 10:08:29;;;;;;;2.03;1.43;;;;;;;26.19;45.04;96766.69;5028930;28;105775;-62
2022/06/14 10:11:14;;;;;;;2.70;1.43;;;;;;;25.73;43.10;96756.16;5031417;27;101744;-62
2022/06/14 10:14:03;;;;;;;2.50;1.30;;;;;;;26.46;44.49;96753.16;5031576;27;101820;-62
2022/06/14 10:16:44;;;;;;;2.23;1.30;;;;;;;26.66;41.32;96752.25;5030810;28;101666;-62
2022/06/14 10:22:50;;;;;;;2.73;1.40;;;;;;;26.55;41.06;96751.16;5032328;28;105475;-62
2022/06/14 10:25:35;;;;;;;1.90;1.47;;;;;;;26.70;41.39;96744.19;5031229;28;101784;-62
2022/06/14 10:28:12;;;;;;;1.90;1.57;;;;;;;26.85;40.87;96746.16;5029436;28;105421;-62
2022/06/14 10:30:59;;;;;;;2.40;1.60;;;;;;;26.94;40.33;96736.72;5030405;27;102852;-62
2022/06/14 10:33:39;;;;;;;2.63;1.50;;;;;;;26.97;39.48;96741.47;5031090;28;101689;-62
2022/06/14 10:36:36;;;;;;;2.67;1.40;;;;;;;27.20;38.82;96747.22;5029556;28;105626;-62
2022/06/14 10:39:26;;;;;;;2.67;1.40;;;;;;;26.83;35.95;96746.53;5030435;28;102557;-62
2022/06/14 10:41:59;;;;;;;2.40;1.40;;;;;;;26.80;40.15;96743.69;5029433;28;101752;-62
2022/06/14 10:44:45;;;;;;;4.20;1.47;;;;;;;26.65;42.28;96738.97;5030968;28;102409;-62
2022/06/14 10:47:20;;;;;;;3.37;1.40;;;;;;;27.30;39.96;96739.31;5032156;28;105885;-62
2022/06/14 10:50:10;;;;;;;2.50;1.50;;;;;;;27.19;37.83;96738.22;5030937;27;102329;-62
2022/06/14 10:52:47;;;;;;;2.17;1.40;;;;;;;27.09;40.17;96727.00;5028641;28;105462;-62
2022/06/14 10:55:40;;;;;;;1.60;1.40;;;;;;;27.00;39.96;96735.34;5030772;28;101669;-62
2022/06/14 10:58:39;;;;;;;2.67;1.60;;;;;;;27.51;40.95;96734.44;5025411;27;106748;-62
2022/06/14 11:01:24;;;;;;;2.37;1.33;;;;;;;27.67;42.13;96723.56;5025300;28;105373;-62
2022/06/14 11:04:00;;;;;;;2.07;1.40;;;;;;;27.33;40.13;96718.72;5030757;27;101817;-62
2022/06/14 11:06:55;;;;;;;3.60;1.70;;;;;;;27.94;39.02;96725.41;5030700;27;102891;-62
2022/06/14 11:09:31;;;;;;;4.10;1.50;;;;;;;28.06;37.47;96728.84;5030179;27;103075;-62
2022/06/14 11:12:20;;;;;;;2.53;1.50;;;;;;;27.76;37.30;96722.22;5032532;28;101879;-62
2022/06/14 11:15:11;;;;;;;1.90;1.53;;;;;;;28.04;42.03;96719.41;5028303;28;105646;-62
2022/06/14 11:18:06;;;;;;;3.13;1.30;;;;;;;27.70;42.53;96709.97;5028973;28;101961;-62
2022/06/14 11:20:47;;;;;;;2.97;1.50;;;;;;;27.16;39.13;96721.72;5030480;28;102364;-62
2022/06/14 11:23:21;;;;;;;1.87;1.43;;;;;;;27.22;42.40;96707.50;5029885;28;102873;-62
2022/06/14 11:26:02;;;;;;;1.60;1.50;;;;;;;25.15;40.23;96712.84;5028873;28;101770;-62
2022/06/14 11:28:36;;;;;;;2.53;1.50;;;;;;;24.33;41.01;96712.84;5030377;27;102290;-62
2022/06/14 11:31:12;;;;;;;5.10;1.87;;;;;;;25.36;41.89;96709.00;5029654;28;102598;-62
2022/06/14 11:33:56;;;;;;;3.33;2.37;;;;;;;26.51;42.94;96705.75;5032376;28;101931;-62
2022/06/14 11:36:49;;;;;;;2.80;1.53;;;;;;;26.83;39.84;96708.31;5036439;28;103956;-62
2022/06/14 11:39:34;;;;;;;3.50;1.70;;;;;;;26.70;37.26;96709.47;5024916;28;101887;-62
2022/06/14 11:42:05;;;;;;;2.60;1.60;;;;;;;25.72;37.47;96703.59;5033825;28;103005;-62
2022/06/14 11:45:06;;;;;;;4.13;1.60;;;;;;;25.59;38.68;96695.75;5032946;28;102607;-62
2022/06/14 11:47:47;;;;;;;1.50;1.40;;;;;;;27.17;44.00;96706.94;5019049;27;102082;-62
2022/06/14 11:50:27;;;;;;;2.33;1.50;;;;;;;27.25;40.64;96698.59;5033804;28;101688;-62
2022/06/14 11:53:24;;;;;;;3.37;1.57;;;;;;;27.42;40.90;96698.31;5032750;28;102556;-62
2022/06/14 11:55:59;;;;;;;1.47;1.37;;;;;;;27.75;38.48;96698.78;5024465;27;101778;-62
2022/06/14 11:58:36;;;;;;;1.93;1.40;;;;;;;28.16;38.68;96695.50;5031951;28;105069;-62
2022/06/14 12:01:22;;;;;;;1.93;1.50;;;;;;;28.12;37.92;96688.38;5035666;28;101798;-62
2022/06/14 12:04:04;;;;;;;2.73;1.60;;;;;;;28.27;39.58;96690.31;5031943;28;105036;-62
2022/06/14 12:06:51;;;;;;;3.30;1.67;;;;;;;28.76;35.90;96696.91;5031305;28;104363;-62
2022/06/14 12:09:33;;;;;;;1.50;1.40;;;;;;;26.54;36.62;96694.16;5031806;28;101842;-62
2022/06/14 12:12:09;;;;;;;3.07;1.30;;;;;;;27.30;37.85;96692.13;5033369;27;102511;-62
2022/06/14 12:14:52;;;;;;;4.47;1.50;;;;;;;26.95;35.38;96685.63;5032586;27;102251;-62
2022/06/14 12:17:27;;;;;;;2.43;1.53;;;;;;;26.61;36.60;96684.28;5033254;28;101751;-62
2022/06/14 12:20:20;;;;;;;1.83;1.40;;;;;;;26.92;40.81;96686.34;5031555;28;105086;-62
2022/06/14 12:22:57;;;;;;;2.73;1.40;;;;;;;26.84;39.02;96682.63;5036001;28;102623;-62